Kenseh, Arkansas
Current Conditions -  °F | °C
As of 6:56 PM on Wednesday 26 Nov 2014 (Local Time) from KSRC Reporting Station
Clear Clear  
Wind Chill: 38°   Ceiling: Unl
Heat Index: 38°   Visibility: 10mi
Dew Point: 31°   Wind: 0mph
Humidity: 76%   Direction: NA
Pressure: 30.16"   Gusts: NA
Location:  35.2119°N, 91.6651°W
Report Text: KSRC 270056Z AUTO 00000KT 10SM CLR 03/M01 A3016 RMK AO2 SLP221 T00331006 TSNO
Loading
Personal Weather Stations






























Interactive Weather Map New forecast layout! Learn more

10-Day Weather Forecast

Advertisements
Track Severe Weather on mobile